CheckWX is a tool to help pilots better visualize weather data.  It is not intended as a substitute for an official pre-flight weather briefing.

23:23:54 UTC

KCDH METAR
Harrell Field Airport
Camden, Arkansas, USA
Current

9 mins ago

KCDH 162315Z AUTO 00000KT 9SM CLR 10/M02 A3014 RMK AO2
Observed
Nov-16 @ 23:15 UTC
Visibility
9 SM
Flight Rules
VFR
Cloud Levels
  • Clear skies
Temperature
10°C / 50°F
Dewpoint
-2°C / 28°F
Humidity
43%
Altimeter
30.14" Hg
Pressure
1020.62 hPa
Previous

29 mins ago

KCDH 162255Z AUTO 00000KT 9SM CLR 12/M03 A3014 RMK AO2
Observed
Nov-16 @ 22:55 UTC
Visibility
9 SM
Flight Rules
VFR
Cloud Levels
  • Clear skies
Temperature
12°C / 54°F
Dewpoint
-3°C / 27°F
Humidity
35%
Altimeter
30.14" Hg
Pressure
1020.62 hPa
Previous

49 mins ago

KCDH 162235Z AUTO 00000KT 9SM CLR 14/M05 A3015 RMK AO2
Observed
Nov-16 @ 22:35 UTC
Visibility
9 SM
Flight Rules
VFR
Cloud Levels
  • Clear skies
Temperature
14°C / 57°F
Dewpoint
-5°C / 23°F
Humidity
27%
Altimeter
30.15" Hg
Pressure
1021.02 hPa